Time;durP1;ratioP1;P1;durP2;ratioP2;P2;SDS_P1;SDS_P2;PMS_P1;PMS_P2;Temp;Humidity;BMP_temperature;BMP_pressure;BME280_temperature;BME280_humidity;BME280_pressure;Samples;Min_cycle;Max_cycle;Signal;HPM_P1;HPM_P2
2021/09/04 00:00:25;;;;;;;5.43;3.03;;;12.00;78.40;;;;;;4994875;28;20503;-85
2021/09/04 00:02:51;;;;;;;5.30;3.28;;;12.00;78.50;;;;;;4977575;28;20453;-84
2021/09/04 00:05:17;;;;;;;5.07;2.95;;;12.00;78.90;;;;;;4977446;28;20030;-84
2021/09/04 00:07:43;;;;;;;4.75;2.78;;;12.00;78.60;;;;;;4993693;28;20380;-84
2021/09/04 00:10:09;;;;;;;5.57;3.20;;;11.90;78.60;;;;;;4994353;28;20041;-84
2021/09/04 00:12:34;;;;;;;5.03;3.08;;;11.90;78.60;;;;;;4994887;28;20420;-84
2021/09/04 00:15:00;;;;;;;5.32;3.10;;;11.90;78.70;;;;;;4994398;28;20050;-84
2021/09/04 00:17:26;;;;;;;4.85;3.08;;;11.90;78.70;;;;;;4993418;28;20026;-85
2021/09/04 00:19:52;;;;;;;5.13;3.00;;;11.90;78.80;;;;;;4994467;28;20426;-84
2021/09/04 00:22:18;;;;;;;5.30;3.05;;;11.90;78.80;;;;;;4976985;28;20034;-83
2021/09/04 00:24:44;;;;;;;5.93;3.17;;;11.90;78.80;;;;;;4993248;28;20030;-83
2021/09/04 00:27:09;;;;;;;5.97;2.90;;;11.90;78.80;;;;;;4994577;28;20026;-86
2021/09/04 00:29:35;;;;;;;5.78;3.42;;;12.00;78.80;;;;;;4976943;28;20042;-87
2021/09/04 00:32:02;;;;;;;6.43;3.63;;;11.90;79.20;;;;;;4976999;28;20046;-87
2021/09/04 00:34:28;;;;;;;5.88;3.50;;;12.00;79.20;;;;;;4994868;28;20114;-87
2021/09/04 00:36:54;;;;;;;6.75;3.35;;;12.00;79.10;;;;;;4994658;28;20088;-85
2021/09/04 00:39:19;;;;;;;7.55;3.92;;;12.00;79.20;;;;;;4999092;28;20030;-85
2021/09/04 00:41:45;;;;;;;6.20;3.28;;;12.00;79.30;;;;;;5002322;28;20034;-84
2021/09/04 00:44:16;;;;;;;6.15;3.58;;;12.10;79.40;;;;;;5000039;28;20498;-85
2021/09/04 00:46:43;;;;;;;5.28;3.20;;;12.10;79.30;;;;;;4986165;28;20045;-85
2021/09/04 00:49:09;;;;;;;6.45;3.45;;;12.10;79.60;;;;;;4980915;28;20072;-87
2021/09/04 00:51:35;;;;;;;6.75;3.70;;;12.10;79.50;;;;;;4981189;28;20444;-87
2021/09/04 00:54:01;;;;;;;7.15;4.13;;;12.10;79.70;;;;;;4998197;28;20035;-88
2021/09/04 00:56:27;;;;;;;6.72;3.58;;;12.10;80.00;;;;;;4980922;28;20054;-88
2021/09/04 00:58:53;;;;;;;6.43;3.70;;;12.20;80.00;;;;;;4980869;28;20456;-87
2021/09/04 01:01:19;;;;;;;5.75;3.38;;;12.20;79.90;;;;;;4981123;28;20129;-87
2021/09/04 01:03:45;;;;;;;4.90;3.13;;;12.30;79.70;;;;;;4980804;28;20070;-87
2021/09/04 01:06:13;;;;;;;5.25;3.00;;;12.30;79.40;;;;;;4997725;28;20061;-87
2021/09/04 01:08:40;;;;;;;5.72;3.22;;;12.30;79.10;;;;;;4981225;28;20062;-87
2021/09/04 01:11:09;;;;;;;5.45;2.90;;;12.30;79.00;;;;;;4980687;28;20026;-87
2021/09/04 01:13:36;;;;;;;6.13;3.75;;;12.40;78.80;;;;;;4980761;28;20023;-85
2021/09/04 01:16:03;;;;;;;6.63;3.50;;;12.30;79.00;;;;;;4980035;28;20117;-87
2021/09/04 01:18:30;;;;;;;4.72;2.83;;;12.30;78.80;;;;;;4980712;28;20045;-86
2021/09/04 01:20:56;;;;;;;6.38;3.42;;;12.30;78.80;;;;;;4997967;28;20022;-86
2021/09/04 01:23:21;;;;;;;5.60;3.25;;;12.30;78.90;;;;;;4997704;28;20485;-86
2021/09/04 01:25:55;;;;;;;6.15;3.47;;;12.30;79.00;;;;;;4998280;28;20588;-87
2021/09/04 01:28:21;;;;;;;6.88;3.53;;;12.20;79.00;;;;;;4997670;28;20484;-87
2021/09/04 01:30:47;;;;;;;5.55;3.10;;;12.20;79.10;;;;;;4997557;28;20030;-87
2021/09/04 01:33:13;;;;;;;5.80;3.40;;;12.20;79.10;;;;;;4979926;28;20026;-87
2021/09/04 01:35:39;;;;;;;4.55;2.70;;;12.10;79.00;;;;;;4997304;28;20389;-86
2021/09/04 01:38:05;;;;;;;4.53;3.03;;;12.10;79.00;;;;;;4996323;28;20457;-85
2021/09/04 01:40:31;;;;;;;4.88;2.95;;;12.10;79.10;;;;;;4997678;28;20522;-85
2021/09/04 01:42:57;;;;;;;5.50;3.25;;;12.10;79.10;;;;;;4980010;28;20366;-85
2021/09/04 01:45:24;;;;;;;7.55;3.53;;;12.10;79.20;;;;;;4997651;28;20034;-86
2021/09/04 01:47:50;;;;;;;6.70;3.55;;;12.10;79.30;;;;;;4997184;28;20022;-86
2021/09/04 01:50:16;;;;;;;6.18;3.00;;;12.10;79.20;;;;;;4979734;28;20034;-86
2021/09/04 01:52:43;;;;;;;5.78;2.80;;;12.10;79.20;;;;;;4979961;28;20093;-86
2021/09/04 01:55:11;;;;;;;5.38;2.90;;;12.00;79.20;;;;;;4997960;28;20031;-86
2021/09/04 01:57:37;;;;;;;5.80;2.90;;;12.00;79.30;;;;;;4979883;28;20022;-86
2021/09/04 02:00:09;;;;;;;4.97;2.97;;;11.90;79.30;;;;;;4997269;28;20032;-86
2021/09/04 02:02:34;;;;;;;5.00;2.63;;;11.90;79.50;;;;;;4997220;28;20523;-85
2021/09/04 02:05:00;;;;;;;5.32;2.80;;;11.80;79.50;;;;;;4979554;28;20034;-86
2021/09/04 02:07:26;;;;;;;5.05;2.92;;;11.80;79.60;;;;;;4979977;28;20366;-85
2021/09/04 02:09:52;;;;;;;5.63;2.90;;;11.80;79.90;;;;;;4980262;28;20030;-85
2021/09/04 02:12:17;;;;;;;5.45;3.13;;;11.80;80.00;;;;;;4979832;28;20038;-85
2021/09/04 02:14:43;;;;;;;6.45;3.13;;;11.70;80.10;;;;;;4995581;28;20034;-87
2021/09/04 02:17:09;;;;;;;5.75;3.35;;;11.70;80.40;;;;;;4979342;28;20030;-85
2021/09/04 02:19:35;;;;;;;6.05;3.47;;;11.70;80.70;;;;;;4996860;28;20034;-85
2021/09/04 02:22:00;;;;;;;5.85;3.03;;;11.80;80.90;;;;;;4979177;28;20054;-85
2021/09/04 02:24:26;;;;;;;6.43;3.85;;;11.80;80.80;;;;;;4996678;28;20023;-85
2021/09/04 02:26:52;;;;;;;6.32;3.70;;;11.70;80.70;;;;;;4979568;28;20057;-85
2021/09/04 02:29:17;;;;;;;6.70;3.75;;;11.80;80.90;;;;;;4996562;28;20457;-84
2021/09/04 02:31:43;;;;;;;6.18;3.25;;;11.70;80.90;;;;;;4996569;28;20461;-84
2021/09/04 02:34:09;;;;;;;5.32;3.20;;;11.70;81.00;;;;;;4992867;28;20030;-85
2021/09/04 02:36:35;;;;;;;5.85;2.80;;;11.70;80.90;;;;;;4979357;28;20353;-85
2021/09/04 02:39:01;;;;;;;4.97;3.00;;;11.60;80.80;;;;;;4978885;28;20026;-84
2021/09/04 02:41:27;;;;;;;4.75;2.90;;;11.60;81.10;;;;;;4996009;28;20065;-84
2021/09/04 02:43:52;;;;;;;4.72;2.80;;;11.60;81.10;;;;;;4996288;28;20046;-85
2021/09/04 02:46:18;;;;;;;4.28;2.65;;;11.50;81.10;;;;;;4996255;28;20030;-85
2021/09/04 02:48:43;;;;;;;4.82;2.95;;;11.50;81.10;;;;;;4995878;28;20152;-85
2021/09/04 02:51:09;;;;;;;4.88;2.83;;;11.50;81.50;;;;;;4996242;28;20472;-85
2021/09/04 02:53:35;;;;;;;4.68;2.80;;;11.50;81.50;;;;;;4978947;28;20457;-85
2021/09/04 02:56:00;;;;;;;5.20;2.70;;;11.50;81.60;;;;;;4995288;28;20116;-86
2021/09/04 02:58:26;;;;;;;4.00;2.65;;;11.40;81.50;;;;;;4996124;28;20027;-86
2021/09/04 03:00:52;;;;;;;4.68;2.33;;;11.40;81.60;;;;;;4979315;28;20030;-85
2021/09/04 03:03:17;;;;;;;4.60;2.75;;;11.50;81.70;;;;;;4997155;28;20476;-84
2021/09/04 03:05:44;;;;;;;5.40;3.17;;;11.50;81.80;;;;;;5000427;28;20062;-86
2021/09/04 03:08:10;;;;;;;5.07;3.10;;;11.50;81.90;;;;;;4979704;28;20037;-87
2021/09/04 03:10:36;;;;;;;5.13;3.20;;;11.60;81.90;;;;;;4995548;28;20030;-85
2021/09/04 03:13:02;;;;;;;5.85;3.35;;;11.60;82.10;;;;;;4995449;28;20477;-86
2021/09/04 03:15:27;;;;;;;5.43;3.30;;;11.60;82.10;;;;;;4994649;28;20031;-87
2021/09/04 03:17:53;;;;;;;6.57;3.55;;;11.70;82.20;;;;;;4978640;28;20027;-86
2021/09/04 03:20:19;;;;;;;5.28;3.17;;;11.70;82.20;;;;;;4994746;28;20034;-85
2021/09/04 03:22:44;;;;;;;7.15;3.53;;;11.70;82.10;;;;;;4978214;28;20034;-86
2021/09/04 03:25:11;;;;;;;5.93;3.50;;;11.70;82.30;;;;;;4978177;28;20023;-88
2021/09/04 03:27:36;;;;;;;5.53;3.33;;;11.80;82.40;;;;;;4995527;28;20026;-86
2021/09/04 03:30:03;;;;;;;5.32;3.38;;;11.80;82.20;;;;;;4978119;28;20457;-87
2021/09/04 03:32:29;;;;;;;5.55;3.20;;;11.80;82.20;;;;;;4995164;28;20034;-85
2021/09/04 03:34:57;;;;;;;6.53;3.58;;;11.80;82.30;;;;;;4993513;28;20036;-85
2021/09/04 03:37:23;;;;;;;5.57;3.55;;;11.90;82.50;;;;;;4995598;28;20038;-85
2021/09/04 03:39:49;;;;;;;7.30;3.88;;;11.90;82.50;;;;;;4994304;28;20027;-83
2021/09/04 03:42:15;;;;;;;6.75;4.13;;;11.90;82.50;;;;;;4993856;28;20465;-85
2021/09/04 03:44:40;;;;;;;6.35;3.55;;;11.90;82.50;;;;;;4993845;28;20022;-85
2021/09/04 03:47:07;;;;;;;4.80;3.30;;;12.00;82.60;;;;;;4977720;28;20463;-85
2021/09/04 03:49:32;;;;;;;5.10;3.08;;;12.00;82.20;;;;;;4994030;28;20030;-85
2021/09/04 03:51:58;;;;;;;5.97;2.97;;;12.00;82.10;;;;;;4994878;28;20436;-84
2021/09/04 03:54:24;;;;;;;6.00;2.97;;;12.00;82.20;;;;;;4994504;28;20437;-84
2021/09/04 03:56:50;;;;;;;4.60;2.80;;;12.10;82.20;;;;;;4977434;28;20085;-85
2021/09/04 03:59:16;;;;;;;5.95;3.00;;;12.20;83.00;;;;;;4977386;28;20441;-84
2021/09/04 04:01:41;;;;;;;4.55;3.00;;;12.20;82.60;;;;;;4994297;28;20070;-86
2021/09/04 04:04:07;;;;;;;5.40;3.17;;;12.20;82.60;;;;;;4977776;28;20061;-85
2021/09/04 04:06:33;;;;;;;4.18;2.60;;;12.30;82.60;;;;;;4993947;28;20527;-87
2021/09/04 04:08:58;;;;;;;5.10;3.10;;;12.30;82.70;;;;;;4977401;28;20461;-86
2021/09/04 04:11:24;;;;;;;5.28;3.20;;;12.40;82.90;;;;;;4977305;28;20453;-85
2021/09/04 04:13:50;;;;;;;4.82;3.20;;;12.50;82.90;;;;;;4993110;28;20029;-85
2021/09/04 04:16:15;;;;;;;4.80;2.80;;;12.60;82.90;;;;;;4977393;28;20112;-85
2021/09/04 04:18:41;;;;;;;4.10;2.70;;;12.70;82.40;;;;;;4993101;28;20037;-87
2021/09/04 04:21:07;;;;;;;4.05;2.55;;;12.80;81.90;;;;;;4993399;28;20383;-86
2021/09/04 04:23:33;;;;;;;4.75;2.78;;;12.90;81.70;;;;;;4992956;28;20026;-86
2021/09/04 04:25:59;;;;;;;3.78;2.50;;;13.00;81.60;;;;;;4994132;28;20116;-85
2021/09/04 04:28:25;;;;;;;4.65;3.00;;;13.00;81.50;;;;;;4994862;28;20098;-87
2021/09/04 04:30:50;;;;;;;4.82;3.00;;;13.00;81.30;;;;;;4993079;28;20034;-88
2021/09/04 04:33:16;;;;;;;4.95;2.92;;;13.10;81.00;;;;;;4961221;28;20034;-87
2021/09/04 04:35:44;;;;;;;5.15;2.90;;;13.10;80.90;;;;;;4977072;28;20030;-89
2021/09/04 04:38:09;;;;;;;6.20;3.33;;;13.10;80.90;;;;;;4994291;28;20045;-87
2021/09/04 04:40:38;;;;;;;4.10;2.72;;;13.20;81.20;;;;;;4976490;28;20030;-86
2021/09/04 04:43:04;;;;;;;4.63;2.80;;;13.20;81.10;;;;;;4984931;28;20050;-87
2021/09/04 04:45:30;;;;;;;6.00;3.60;;;13.40;81.10;;;;;;4973950;28;20362;-89
2021/09/04 04:47:55;;;;;;;5.72;3.20;;;13.50;81.00;;;;;;4973955;28;20027;-86
2021/09/04 04:50:21;;;;;;;5.10;3.00;;;13.50;80.70;;;;;;4957446;28;20034;-87
2021/09/04 04:52:47;;;;;;;7.22;3.33;;;13.60;80.50;;;;;;4957614;28;20027;-87
2021/09/04 04:55:13;;;;;;;4.65;3.30;;;13.70;80.40;;;;;;4975077;28;20111;-87
2021/09/04 04:57:39;;;;;;;5.60;2.83;;;13.70;80.40;;;;;;4974630;28;20105;-87
2021/09/04 05:00:06;;;;;;;5.72;3.33;;;13.80;80.50;;;;;;4958153;28;20110;-88
2021/09/04 05:02:32;;;;;;;6.00;3.47;;;13.90;80.60;;;;;;4973520;28;20557;-88
2021/09/04 05:04:58;;;;;;;5.78;3.30;;;13.90;80.50;;;;;;4974889;28;20078;-87
2021/09/04 05:07:23;;;;;;;6.20;3.13;;;14.00;80.40;;;;;;4973099;28;20386;-87
2021/09/04 05:09:50;;;;;;;7.38;4.35;;;14.10;80.30;;;;;;4973115;28;20027;-87
2021/09/04 05:12:16;;;;;;;5.80;3.70;;;14.20;80.40;;;;;;4957267;28;20035;-87
2021/09/04 05:14:42;;;;;;;6.03;3.70;;;14.20;80.30;;;;;;4957917;28;20046;-88
2021/09/04 05:17:08;;;;;;;7.28;4.20;;;14.30;80.30;;;;;;4957715;28;20035;-87
2021/09/04 05:19:34;;;;;;;6.70;4.18;;;14.40;80.10;;;;;;4979372;28;20450;-86
2021/09/04 05:22:00;;;;;;;7.72;4.32;;;14.50;79.90;;;;;;4984747;28;20037;-84
2021/09/04 05:24:26;;;;;;;9.55;4.57;;;14.60;79.50;;;;;;4981738;28;20026;-86
2021/09/04 05:26:52;;;;;;;9.43;4.43;;;14.70;79.10;;;;;;4976818;28;20025;-84
2021/09/04 05:29:18;;;;;;;6.35;3.90;;;14.80;78.70;;;;;;4974781;28;20081;-85
2021/09/04 05:31:43;;;;;;;6.07;3.58;;;14.70;78.70;;;;;;4976611;28;20031;-87
2021/09/04 05:34:09;;;;;;;6.47;3.88;;;14.80;79.00;;;;;;4961525;28;20023;-88
2021/09/04 05:36:35;;;;;;;5.80;3.50;;;14.90;78.90;;;;;;4963216;28;20034;-88
2021/09/04 05:39:01;;;;;;;5.13;3.20;;;15.10;78.70;;;;;;4974395;28;20030;-88
2021/09/04 05:41:26;;;;;;;5.75;3.42;;;15.20;78.40;;;;;;4973711;28;20098;-87
2021/09/04 05:43:53;;;;;;;6.30;3.28;;;15.40;78.00;;;;;;5004377;28;20109;-88
2021/09/04 05:46:21;;;;;;;6.50;3.10;;;15.50;77.90;;;;;;4980746;28;20026;-90
2021/09/04 05:48:46;;;;;;;5.22;3.65;;;15.70;77.50;;;;;;4988594;28;20061;-88
2021/09/04 05:51:12;;;;;;;5.60;3.60;;;15.70;77.00;;;;;;4998239;28;20421;-90
2021/09/04 05:53:39;;;;;;;5.30;3.00;;;15.80;76.80;;;;;;4997570;28;20035;-89
2021/09/04 05:56:05;;;;;;;4.78;2.95;;;15.90;77.00;;;;;;4998005;28;20130;-88
2021/09/04 05:58:32;;;;;;;6.28;3.08;;;16.00;77.10;;;;;;4964385;28;20038;-89
2021/09/04 06:00:58;;;;;;;4.70;2.90;;;16.10;77.00;;;;;;4997277;28;20053;-88
2021/09/04 06:03:23;;;;;;;5.75;3.58;;;16.30;76.40;;;;;;4995915;28;20496;-88
2021/09/04 06:05:50;;;;;;;4.88;3.10;;;16.40;75.90;;;;;;4995419;28;20058;-87
2021/09/04 06:08:16;;;;;;;5.10;2.85;;;16.50;75.80;;;;;;4979064;28;20027;-86
2021/09/04 06:10:41;;;;;;;6.32;3.17;;;16.50;75.70;;;;;;4979565;28;20041;-83
2021/09/04 06:13:07;;;;;;;7.10;3.08;;;16.60;75.50;;;;;;4997408;28;20044;-88
2021/09/04 06:15:34;;;;;;;5.28;2.88;;;16.70;75.50;;;;;;4995468;28;20061;-85
2021/09/04 06:17:59;;;;;;;5.00;3.45;;;16.80;75.30;;;;;;4995280;28;20026;-85
2021/09/04 06:20:25;;;;;;;5.82;3.50;;;16.90;75.30;;;;;;4979116;28;20045;-86
2021/09/04 06:22:51;;;;;;;4.97;3.20;;;17.00;75.20;;;;;;4996885;28;20034;-85
2021/09/04 06:25:16;;;;;;;6.25;3.53;;;17.10;75.00;;;;;;4994680;28;20473;-84
2021/09/04 06:27:42;;;;;;;5.47;3.65;;;17.20;74.60;;;;;;4996902;28;20041;-84
2021/09/04 06:30:08;;;;;;;5.53;3.50;;;17.20;73.90;;;;;;4995860;28;20041;-85
2021/09/04 06:32:34;;;;;;;5.57;3.38;;;17.20;74.10;;;;;;4995129;28;20046;-84
2021/09/04 06:35:00;;;;;;;5.57;3.67;;;17.20;74.10;;;;;;4992950;28;20381;-85
2021/09/04 06:37:26;;;;;;;5.78;3.90;;;17.30;73.80;;;;;;4992838;28;20030;-86
2021/09/04 06:39:51;;;;;;;5.93;3.60;;;17.40;73.90;;;;;;4993518;28;20488;-84
2021/09/04 06:42:17;;;;;;;6.05;3.65;;;17.50;73.60;;;;;;4992877;28;20030;-85
2021/09/04 06:44:44;;;;;;;7.38;3.63;;;17.60;73.50;;;;;;4992517;28;20046;-84
2021/09/04 06:47:10;;;;;;;5.80;3.90;;;17.80;73.10;;;;;;4994299;28;20039;-84
2021/09/04 06:49:36;;;;;;;5.82;3.50;;;17.90;72.40;;;;;;4995460;28;20034;-85
2021/09/04 06:52:02;;;;;;;5.05;3.33;;;17.90;72.20;;;;;;4978477;28;20035;-85
2021/09/04 06:54:27;;;;;;;6.35;3.50;;;17.90;72.20;;;;;;4996827;28;20129;-84
2021/09/04 06:56:53;;;;;;;5.88;3.80;;;17.90;72.30;;;;;;4996389;28;20177;-84
2021/09/04 06:59:19;;;;;;;5.65;3.40;;;18.00;72.30;;;;;;4998420;28;20038;-86
2021/09/04 07:01:45;;;;;;;5.13;3.20;;;18.00;72.20;;;;;;4996968;28;20540;-87
2021/09/04 07:04:11;;;;;;;5.18;3.25;;;18.00;71.80;;;;;;4992968;28;20027;-85
2021/09/04 07:06:38;;;;;;;4.97;3.22;;;18.00;71.80;;;;;;4993940;28;20022;-86
2021/09/04 07:09:05;;;;;;;4.53;3.25;;;18.00;71.80;;;;;;4977865;28;20053;-87
2021/09/04 07:11:30;;;;;;;4.82;3.50;;;18.00;71.80;;;;;;4991675;28;20034;-86
2021/09/04 07:13:56;;;;;;;5.40;3.38;;;17.90;71.80;;;;;;4995074;28;20074;-85
2021/09/04 07:16:22;;;;;;;5.15;3.55;;;17.80;71.90;;;;;;4994967;28;20061;-85
2021/09/04 07:18:48;;;;;;;5.05;3.30;;;17.70;72.10;;;;;;4995565;28;20030;-88
2021/09/04 07:21:14;;;;;;;15.73;10.00;;;17.60;72.30;;;;;;4995241;28;20039;-89
2021/09/04 07:23:40;;;;;;;18.23;11.23;;;17.50;72.50;;;;;;4979127;28;20037;-88
2021/09/04 07:26:06;;;;;;;11.55;7.38;;;17.60;72.70;;;;;;4995187;28;20054;-85
2021/09/04 07:28:32;;;;;;;8.60;5.43;;;17.60;72.60;;;;;;4993917;28;20116;-86
2021/09/04 07:30:59;;;;;;;8.50;4.50;;;17.60;72.50;;;;;;4995353;28;20388;-88
2021/09/04 07:33:25;;;;;;;6.53;3.90;;;17.60;72.20;;;;;;4994115;28;20034;-87
2021/09/04 07:35:51;;;;;;;4.80;3.30;;;17.60;72.10;;;;;;4995130;28;20031;-86
2021/09/04 07:38:17;;;;;;;4.53;3.17;;;17.60;72.20;;;;;;4993532;28;20037;-85
2021/09/04 07:40:44;;;;;;;4.68;2.75;;;17.60;72.30;;;;;;4995418;28;20038;-85
2021/09/04 07:43:10;;;;;;;4.03;2.67;;;17.60;72.10;;;;;;4977683;28;20057;-85
2021/09/04 07:45:37;;;;;;;3.72;2.65;;;17.70;72.00;;;;;;4994161;28;20461;-87
2021/09/04 07:48:04;;;;;;;27.33;17.70;;;17.80;72.00;;;;;;4977473;28;20056;-91
2021/09/04 07:50:30;;;;;;;13.23;9.30;;;17.90;72.20;;;;;;4995100;28;20026;-90
2021/09/04 07:52:56;;;;;;;7.50;5.10;;;18.20;71.90;;;;;;4961031;28;20038;-90
2021/09/04 07:55:22;;;;;;;5.75;3.90;;;18.50;71.30;;;;;;4976953;28;20029;-88
2021/09/04 07:57:52;;;;;;;4.68;3.17;;;18.70;70.70;;;;;;4994178;28;20030;-90
2021/09/04 08:00:18;;;;;;;5.03;3.08;;;18.80;70.00;;;;;;4994852;28;20030;-89
2021/09/04 08:02:43;;;;;;;4.20;2.60;;;18.90;69.50;;;;;;4976937;28;20029;-88
2021/09/04 08:05:10;;;;;;;8.25;5.35;;;18.80;69.00;;;;;;4992845;28;20026;-89
2021/09/04 08:07:36;;;;;;;8.27;5.60;;;18.70;68.50;;;;;;4954589;28;20093;-90
2021/09/04 08:10:03;;;;;;;6.35;5.07;;;18.60;68.60;;;;;;4980719;28;20061;-91
2021/09/04 08:12:30;;;;;;;5.97;4.13;;;18.40;68.80;;;;;;4994169;28;20037;-92
2021/09/04 08:14:58;;;;;;;5.32;3.58;;;18.40;68.90;;;;;;4995075;28;20152;-91
2021/09/04 08:17:24;;;;;;;4.20;2.88;;;18.30;68.80;;;;;;4977956;28;20085;-92
2021/09/04 08:19:50;;;;;;;4.07;2.50;;;18.30;68.60;;;;;;4994406;28;20429;-90
2021/09/04 08:22:15;;;;;;;3.58;2.50;;;18.20;68.30;;;;;;4994398;28;20552;-92
2021/09/04 08:24:41;;;;;;;3.95;1.88;;;18.00;68.40;;;;;;4993802;28;20076;-91
2021/09/04 08:27:10;;;;;;;2.33;1.60;;;17.90;68.70;;;;;;4993338;28;20032;-91
2021/09/04 08:29:35;;;;;;;1.85;1.50;;;17.90;69.00;;;;;;4995643;28;20034;-91
2021/09/04 08:32:01;;;;;;;3.72;1.80;;;18.00;68.80;;;;;;4994219;28;20026;-91
2021/09/04 08:34:27;;;;;;;2.08;1.67;;;18.00;68.50;;;;;;4994694;28;20473;-91
2021/09/04 08:36:54;;;;;;;2.03;1.60;;;18.10;68.20;;;;;;4979362;28;20484;-94
2021/09/04 08:39:19;;;;;;;2.97;1.90;;;18.30;68.10;;;;;;4994035;28;20061;-91
2021/09/04 08:41:45;;;;;;;30.75;22.13;;;18.50;67.50;;;;;;4998458;28;20026;-90
2021/09/04 08:44:11;;;;;;;12.27;8.85;;;18.60;66.60;;;;;;4996048;28;20504;-89
2021/09/04 08:46:38;;;;;;;6.85;4.85;;;18.70;65.90;;;;;;4976510;28;20038;-89
2021/09/04 08:49:06;;;;;;;4.55;3.22;;;18.80;65.30;;;;;;4992757;28;20133;-88
2021/09/04 08:51:35;;;;;;;2.63;1.98;;;18.70;64.60;;;;;;4992898;28;20503;-86
2021/09/04 08:54:02;;;;;;;2.60;2.00;;;18.70;64.30;;;;;;4994330;28;20117;-86
2021/09/04 08:56:28;;;;;;;3.88;2.47;;;18.50;64.30;;;;;;4994481;28;20091;-90
2021/09/04 08:58:57;;;;;;;14.90;11.57;;;18.50;64.40;;;;;;4963994;28;20034;-90
2021/09/04 09:01:26;;;;;;;13.63;10.60;;;18.40;64.50;;;;;;4977159;28;20393;-86
2021/09/04 09:03:54;;;;;;;11.65;9.07;;;18.50;64.70;;;;;;4977039;28;20080;-91
2021/09/04 09:06:25;;;;;;;7.90;5.80;;;18.70;64.80;;;;;;4978533;28;20477;-90
2021/09/04 09:08:52;;;;;;;5.82;3.80;;;18.90;64.10;;;;;;4979909;28;20045;-90
2021/09/04 09:11:18;;;;;;;4.82;3.15;;;19.10;63.50;;;;;;4994309;28;20062;-89
2021/09/04 09:13:49;;;;;;;4.28;2.90;;;19.20;63.20;;;;;;4978975;28;20060;-89
2021/09/04 09:16:16;;;;;;;3.83;2.63;;;19.30;62.30;;;;;;4998764;28;20026;-90
2021/09/04 09:18:42;;;;;;;3.95;2.70;;;19.40;62.40;;;;;;4996550;28;20481;-91
2021/09/04 09:21:08;;;;;;;4.57;3.50;;;19.50;62.20;;;;;;4997289;28;20067;-90
2021/09/04 09:23:34;;;;;;;3.45;2.70;;;19.50;61.60;;;;;;4994584;28;20019;-91
2021/09/04 09:26:08;;;;;;;3.88;2.42;;;19.50;61.30;;;;;;4993764;28;20668;-89
2021/09/04 09:28:34;;;;;;;3.22;1.90;;;19.60;60.60;;;;;;4977983;28;20117;-89
2021/09/04 09:31:00;;;;;;;2.63;2.00;;;19.60;61.00;;;;;;4979639;28;20117;-88
2021/09/04 09:33:31;;;;;;;2.45;2.03;;;19.80;60.60;;;;;;4981063;28;20130;-90
2021/09/04 09:35:59;;;;;;;3.03;1.92;;;19.90;60.50;;;;;;4983971;28;20573;-90
2021/09/04 09:38:30;;;;;;;2.90;1.75;;;20.00;60.10;;;;;;4980859;28;20034;-91
2021/09/04 09:40:57;;;;;;;2.60;1.95;;;20.30;59.90;;;;;;5000691;28;20080;-92
2021/09/04 09:43:35;;;;;;;2.95;1.90;;;20.60;59.40;;;;;;5000194;28;20533;-92
2021/09/04 09:46:03;;;;;;;2.72;1.70;;;20.80;58.60;;;;;;4999733;28;20035;-91
2021/09/04 09:48:31;;;;;;;1.95;1.52;;;21.10;58.70;;;;;;5000526;28;20038;-90
2021/09/04 09:51:02;;;;;;;2.67;1.80;;;21.40;58.30;;;;;;4986289;28;20019;-90
2021/09/04 09:53:29;;;;;;;2.33;1.80;;;21.60;57.50;;;;;;4999218;28;20421;-91
2021/09/04 09:55:57;;;;;;;4.30;2.55;;;21.70;56.90;;;;;;5000913;28;20105;-91
2021/09/04 09:58:25;;;;;;;2.55;1.67;;;21.80;56.10;;;;;;4998106;28;20126;-92
2021/09/04 10:00:54;;;;;;;3.83;1.90;;;21.90;55.80;;;;;;5000080;28;20548;-90
2021/09/04 10:03:23;;;;;;;2.53;2.03;;;22.20;55.90;;;;;;4997873;28;20038;-91
2021/09/04 10:05:49;;;;;;;2.72;1.73;;;22.70;55.40;;;;;;4996247;28;20030;-92
2021/09/04 10:08:16;;;;;;;2.42;1.80;;;23.30;54.80;;;;;;4997576;28;20138;-91
2021/09/04 10:10:43;;;;;;;2.33;1.80;;;23.80;53.60;;;;;;4982808;28;20041;-91
2021/09/04 10:13:11;;;;;;;2.22;1.70;;;24.30;53.10;;;;;;5000457;28;20038;-91
2021/09/04 10:15:38;;;;;;;2.13;1.88;;;25.00;52.40;;;;;;4997734;28;20022;-90
2021/09/04 10:18:07;;;;;;;2.38;1.92;;;25.60;51.00;;;;;;4981989;28;20026;-90
2021/09/04 10:20:34;;;;;;;1.95;1.65;;;26.10;49.90;;;;;;4999420;28;20073;-88
2021/09/04 10:23:34;;;;;;;2.38;1.80;;;26.60;49.50;;;;;;5001284;28;20033;-92
2021/09/04 10:26:26;;;;;;;2.35;1.80;;;27.00;42.40;;;;;;4984933;28;20054;-90
2021/09/04 10:29:13;;;;;;;1.88;1.60;;;26.90;41.80;;;;;;5012735;28;20037;-89
2021/09/04 10:32:04;;;;;;;1.55;1.45;;;26.40;42.60;;;;;;5014670;28;20057;-90
2021/09/04 10:34:42;;;;;;;2.05;1.45;;;25.70;43.70;;;;;;4996981;28;20060;-89
2021/09/04 10:37:22;;;;;;;1.73;1.52;;;25.30;44.20;;;;;;5004222;28;20038;-91
2021/09/04 10:39:59;;;;;;;2.92;1.80;;;25.50;44.60;;;;;;4987330;28;20170;-89
2021/09/04 10:42:28;;;;;;;2.78;1.50;;;26.00;42.10;;;;;;4995949;28;20034;-91
2021/09/04 10:45:06;;;;;;;1.23;1.10;;;26.30;45.30;;;;;;4990669;28;20114;-92
2021/09/04 10:47:58;;;;;;;2.35;1.60;;;26.40;43.20;;;;;;4997274;28;20037;-93
2021/09/04 10:50:26;;;;;;;2.10;1.50;;;26.30;40.10;;;;;;5016759;28;20045;-93
2021/09/04 10:52:56;;;;;;;2.42;1.33;;;26.40;44.30;;;;;;5020485;28;20069;-91
2021/09/04 10:55:29;;;;;;;1.60;1.30;;;26.70;44.10;;;;;;5018551;28;20042;-93
2021/09/04 10:58:14;;;;;;;1.65;1.30;;;27.00;42.70;;;;;;5000630;28;20045;-91
2021/09/04 11:00:51;;;;;;;1.25;1.13;;;27.40;39.30;;;;;;5002786;28;20031;-95
2021/09/04 11:03:27;;;;;;;1.95;1.45;;;27.70;42.60;;;;;;4995715;28;20094;-94
2021/09/04 11:05:59;;;;;;;1.60;1.17;;;28.00;42.60;;;;;;5008998;28;20050;-93
2021/09/04 11:08:37;;;;;;;3.92;1.50;;;28.40;41.90;;;;;;5003838;28;20483;-93
2021/09/04 11:11:19;;;;;;;1.77;1.30;;;28.60;40.70;;;;;;4998467;28;20077;-91
2021/09/04 11:13:49;;;;;;;1.30;1.02;;;28.40;38.20;;;;;;4980706;28;20125;-94
2021/09/04 11:16:24;;;;;;;0.98;0.95;;;27.80;40.20;;;;;;4998405;28;20026;-93
2021/09/04 11:18:50;;;;;;;1.48;1.27;;;27.60;39.10;;;;;;4979718;28;20117;-89
2021/09/04 11:21:16;;;;;;;3.15;1.10;;;27.80;41.20;;;;;;4996319;28;20082;-89
2021/09/04 11:23:42;;;;;;;1.52;1.23;;;28.20;41.00;;;;;;4995178;28;20469;-88
2021/09/04 11:26:08;;;;;;;2.30;1.30;;;28.70;40.20;;;;;;4995399;28;20056;-90
2021/09/04 11:28:55;;;;;;;0.93;0.82;;;28.90;39.50;;;;;;4997659;28;20023;-93
2021/09/04 11:31:21;;;;;;;1.50;1.05;;;29.00;39.10;;;;;;4980021;28;20042;-93
2021/09/04 11:33:54;;;;;;;1.20;1.10;;;29.10;39.20;;;;;;4996143;28;20030;-94
2021/09/04 11:36:30;;;;;;;1.55;0.90;;;29.60;38.30;;;;;;4979230;28;20080;-93
2021/09/04 11:38:55;;;;;;;1.50;1.25;;;29.80;35.90;;;;;;4979399;28;20030;-93
2021/09/04 11:41:21;;;;;;;1.42;1.13;;;29.80;37.90;;;;;;4978652;28;20030;-92
2021/09/04 11:43:47;;;;;;;2.17;1.30;;;29.90;37.50;;;;;;4996371;28;20053;-91
2021/09/04 11:46:15;;;;;;;1.70;1.00;;;29.90;36.80;;;;;;4995771;28;20377;-90
2021/09/04 11:48:40;;;;;;;1.65;1.20;;;30.00;36.50;;;;;;4978475;28;20033;-91
2021/09/04 11:51:07;;;;;;;1.48;1.00;;;30.20;36.60;;;;;;4994639;28;20034;-91
2021/09/04 11:53:33;;;;;;;1.48;1.20;;;30.40;36.30;;;;;;4996053;28;20061;-91
2021/09/04 11:55:58;;;;;;;2.55;1.20;;;30.70;36.10;;;;;;4994363;28;20081;-91
2021/09/04 11:58:26;;;;;;;2.72;1.20;;;31.00;35.70;;;;;;4994195;28;20031;-90
2021/09/04 12:00:52;;;;;;;1.38;1.15;;;30.90;34.90;;;;;;4978460;28;20026;-89
2021/09/04 12:03:25;;;;;;;1.00;0.93;;;30.20;34.80;;;;;;4995077;28;20487;-89
2021/09/04 12:05:51;;;;;;;1.35;1.08;;;29.10;33.90;;;;;;4996012;28;20105;-90
2021/09/04 12:08:26;;;;;;;1.80;1.10;;;27.90;35.20;;;;;;4995484;28;20496;-90
2021/09/04 12:10:52;;;;;;;1.25;0.90;;;26.80;35.90;;;;;;4978338;28;20084;-88
2021/09/04 12:13:18;;;;;;;2.78;1.27;;;25.80;36.90;;;;;;4994905;28;20034;-92
2021/09/04 12:15:44;;;;;;;1.67;1.13;;;25.10;37.60;;;;;;4995512;28;20031;-93
2021/09/04 12:18:10;;;;;;;3.28;1.23;;;24.50;38.30;;;;;;4994572;28;20029;-90
2021/09/04 12:20:47;;;;;;;2.00;1.30;;;24.00;39.00;;;;;;4996500;28;20026;-90
2021/09/04 12:23:21;;;;;;;1.42;1.15;;;23.60;39.50;;;;;;4996966;28;20102;-89
2021/09/04 12:25:49;;;;;;;2.03;1.08;;;23.20;40.10;;;;;;4995963;28;20031;-90
2021/09/04 12:28:22;;;;;;;3.80;1.60;;;23.00;41.20;;;;;;4977792;28;20026;-89
2021/09/04 12:31:07;;;;;;;2.05;1.25;;;23.10;40.80;;;;;;4994563;28;20034;-90
2021/09/04 12:33:52;;;;;;;2.47;1.67;;;23.50;40.70;;;;;;4978946;28;20115;-90
2021/09/04 12:36:38;;;;;;;2.22;1.30;;;24.30;38.80;;;;;;4968969;28;20093;-91
2021/09/04 12:39:24;;;;;;;2.88;1.70;;;24.70;38.60;;;;;;4996164;28;20377;-91
2021/09/04 12:42:02;;;;;;;2.60;1.45;;;24.60;38.50;;;;;;4981722;28;20034;-91
2021/09/04 12:44:40;;;;;;;3.30;1.40;;;24.30;39.30;;;;;;5002941;28;20401;-91
2021/09/04 12:47:09;;;;;;;1.35;1.25;;;24.50;39.30;;;;;;5000318;28;20036;-92